Startpagina
METAR-TAF:

METAR-TAF

Vliegvelden :

Yap, Yap Island, Micronesië

breedte: 09-29N, lengte: 138-05E, hoogte: 28 m

Actueel weer

Dit bericht is 39 minuten geleden gemaakt, om 03:53 UTC
Wind 5 kt uit variabele richting
Temperatuur 30°C
Vochtigheid 79%
Druk 1007 hPa
Zicht: 19.3 km
Weinig wolken op 1800 ft
Verspreide wolken op 13000 ft
Gebroken wolken op 30000 ft

METAR: PTYA 140353Z VRB05KT 12SM FEW018 SCT130 BKN300 30/26 A2973 RMK SLP069 T03020257

Tijdstip: 14:32 (04:32 UTC)

Verwachting

Dit bericht is 5 uur en het 1 minuten geleden gemaakt, om 23:31 UTC
Verwachting geldig van 14 om 00 UTC tot 14 om 24 UTC
Wind 7 kt uit variabele richting
Zicht: 10 km
Weinig wolken op 1600 ft
Verspreide wolken op 3000 ft
Verspreide wolken op 13000 ft
buien in de omgeving

TAF: PTYA 132331Z 1400/1424 VRB07KT P6SM VCSH FEW016 SCT030 SCT130

Waarnemingen en weersverwachtingen van meer dan 4000 vliegvelden (METAR en TAF).

De beschikbare stations zijn de gele en rode punten op de kaart.

Ga met uw muis naar het station om de naam te zien.

Klik dan om waarnemingen en weersverwachtingen te zien.

kaart wijzigen: klik op de groene knoppen met een zwart kruis om in te zoomen, op de groene knop met een streepje om uit te zoomen of op de groene pijlen voor aangrenzende kaarten.


METAR-TAF: